Time;durP1;ratioP1;P1;durP2;ratioP2;P2;SDS_P1;SDS_P2;PMS_P1;PMS_P2;Temp;Humidity;BMP_temperature;BMP_pressure;BME280_temperature;BME280_humidity;BME280_pressure;Samples;Min_cycle;Max_cycle;Signal;HPM_P1;HPM_P2
2021/09/11 07:49:23;;;;;;;3.08;1.52;;;28.30;43.40;;;;;;5057215;28;20413;-86
2021/09/11 07:51:49;;;;;;;4.45;1.60;;;28.80;43.80;;;;;;5070528;28;20029;-80
2021/09/11 07:54:14;;;;;;;2.17;1.67;;;29.10;41.50;;;;;;5071685;28;20039;-79
2021/09/11 07:56:40;;;;;;;3.90;1.83;;;29.70;40.90;;;;;;5065939;28;20021;-80
2021/09/11 07:59:06;;;;;;;2.53;1.25;;;30.00;40.20;;;;;;5072238;28;20025;-80
2021/09/11 08:01:31;;;;;;;2.58;1.05;;;30.30;38.80;;;;;;5061533;28;20029;-79
2021/09/11 08:03:57;;;;;;;1.80;1.02;;;29.90;38.30;;;;;;5059891;28;20056;-79
2021/09/11 08:06:23;;;;;;;3.78;1.30;;;30.30;38.90;;;;;;5062305;28;20028;-79
2021/09/11 08:08:48;;;;;;;2.47;0.98;;;30.40;38.70;;;;;;5068213;28;20025;-79
2021/09/11 08:11:15;;;;;;;1.73;0.77;;;30.80;36.90;;;;;;5068460;28;20032;-79
2021/09/11 08:13:42;;;;;;;2.20;1.05;;;31.00;37.20;;;;;;5070983;28;20059;-79
2021/09/11 08:16:08;;;;;;;2.53;1.05;;;30.40;37.80;;;;;;5069136;28;20052;-80
2021/09/11 08:18:33;;;;;;;2.00;0.90;;;30.00;38.40;;;;;;5062407;28;20029;-79
2021/09/11 08:20:59;;;;;;;2.65;1.00;;;29.30;38.60;;;;;;5057205;28;20029;-78
2021/09/11 08:23:25;;;;;;;2.08;0.80;;;28.90;40.20;;;;;;5050637;28;20040;-77
2021/09/11 08:25:51;;;;;;;1.70;0.85;;;28.40;41.70;;;;;;5052085;28;20491;-77
2021/09/11 08:28:17;;;;;;;3.55;0.93;;;28.10;41.90;;;;;;5051831;28;20090;-80
2021/09/11 08:30:42;;;;;;;3.30;1.10;;;27.80;42.80;;;;;;5053720;28;20120;-78
2021/09/11 08:33:12;;;;;;;1.75;0.80;;;27.60;42.80;;;;;;5056726;28;20072;-80
2021/09/11 08:35:39;;;;;;;2.22;0.85;;;27.70;42.60;;;;;;5060997;28;20839;-82
2021/09/11 08:38:04;;;;;;;1.88;0.73;;;27.80;41.60;;;;;;5060632;28;20050;-80
2021/09/11 08:40:31;;;;;;;1.77;1.00;;;28.30;42.10;;;;;;5068441;28;20492;-83
2021/09/11 08:42:57;;;;;;;1.73;0.90;;;28.90;41.10;;;;;;5058766;28;20523;-81
2021/09/11 08:45:23;;;;;;;2.63;1.00;;;29.60;39.90;;;;;;5061160;28;20066;-81
2021/09/11 08:47:49;;;;;;;2.95;1.00;;;29.60;36.60;;;;;;5066660;28;20041;-81
2021/09/11 08:50:17;;;;;;;2.95;1.02;;;30.00;38.50;;;;;;5065092;28;20024;-81
2021/09/11 08:52:48;;;;;;;5.88;2.00;;;29.90;37.30;;;;;;5060574;28;20017;-80
2021/09/11 08:55:15;;;;;;;2.67;1.27;;;30.40;37.60;;;;;;5057439;28;20150;-79
2021/09/11 08:57:59;;;;;;;2.88;0.88;;;30.80;38.00;;;;;;5061743;28;20502;-80
2021/09/11 09:00:49;;;;;;;2.47;0.82;;;31.30;35.90;;;;;;5049317;28;20029;-80
2021/09/11 09:03:37;;;;;;;2.75;0.70;;;31.00;35.10;;;;;;5048135;28;20037;-79
2021/09/11 09:06:27;;;;;;;1.80;0.70;;;30.30;36.30;;;;;;5052802;28;20120;-79
2021/09/11 09:09:10;;;;;;;2.45;0.68;;;29.00;38.50;;;;;;5045326;28;20475;-79
2021/09/11 09:11:38;;;;;;;1.40;0.70;;;27.50;40.90;;;;;;5048092;28;20369;-79
2021/09/11 09:14:16;;;;;;;2.13;0.80;;;26.80;41.10;;;;;;5044200;28;20064;-79
2021/09/11 09:16:51;;;;;;;1.58;0.60;;;25.60;45.60;;;;;;5046889;28;20040;-79
2021/09/11 09:19:25;;;;;;;3.70;0.80;;;25.30;45.90;;;;;;5047895;28;20395;-79
2021/09/11 09:21:53;;;;;;;2.78;1.10;;;25.20;46.50;;;;;;5047317;28;20025;-78
2021/09/11 09:24:32;;;;;;;2.05;0.60;;;25.40;46.40;;;;;;5045750;28;20038;-78
2021/09/11 09:27:00;;;;;;;3.53;0.80;;;25.80;45.90;;;;;;5044355;28;20057;-79
2021/09/11 09:29:26;;;;;;;1.80;0.63;;;26.20;42.30;;;;;;5046398;28;20032;-79
2021/09/11 09:31:56;;;;;;;1.83;0.80;;;26.80;42.60;;;;;;5045400;28;20034;-78
2021/09/11 09:34:48;;;;;;;1.08;0.52;;;27.80;41.80;;;;;;5047560;28;20075;-78
2021/09/11 09:37:15;;;;;;;1.52;0.70;;;28.50;38.70;;;;;;5046751;28;20051;-82
2021/09/11 09:39:47;;;;;;;2.53;0.68;;;29.30;37.60;;;;;;5046478;28;20018;-77
2021/09/11 09:42:14;;;;;;;3.42;1.08;;;30.00;36.70;;;;;;5050986;28;20018;-80
2021/09/11 09:44:41;;;;;;;1.10;0.57;;;30.70;36.00;;;;;;5047026;28;20033;-77
2021/09/11 09:47:14;;;;;;;1.55;0.60;;;31.10;34.30;;;;;;5044901;28;20025;-77
2021/09/11 09:49:40;;;;;;;1.40;0.50;;;31.30;34.50;;;;;;5046391;28;20451;-77
2021/09/11 09:52:06;;;;;;;2.00;1.52;;;31.20;35.40;;;;;;5046570;28;20021;-77
2021/09/11 09:54:32;;;;;;;1.50;0.40;;;31.10;34.80;;;;;;5048118;28;20187;-78
2021/09/11 09:56:58;;;;;;;2.67;1.08;;;30.60;35.20;;;;;;5045673;28;20080;-78
2021/09/11 09:59:25;;;;;;;2.42;0.57;;;29.80;35.40;;;;;;5045104;28;20511;-78
2021/09/11 10:01:51;;;;;;;1.25;0.57;;;28.70;38.20;;;;;;5052672;28;20060;-79
2021/09/11 10:04:19;;;;;;;2.45;1.05;;;28.30;38.30;;;;;;5050669;28;20033;-77
2021/09/11 10:06:53;;;;;;;1.10;0.60;;;27.80;38.90;;;;;;5051047;28;20033;-76
2021/09/11 10:09:26;;;;;;;1.92;0.70;;;27.30;39.90;;;;;;5054691;28;20052;-77
2021/09/11 10:11:53;;;;;;;2.75;0.60;;;26.80;40.90;;;;;;5045576;28;20387;-77
2021/09/11 10:14:21;;;;;;;2.03;0.65;;;26.30;40.60;;;;;;5039371;28;20032;-77
2021/09/11 10:17:31;;;;;;;1.67;1.00;;;25.80;41.60;;;;;;5044429;28;20047;-78
2021/09/11 10:19:56;;;;;;;1.35;0.50;;;25.50;43.80;;;;;;5040717;28;20049;-77
2021/09/11 10:22:24;;;;;;;2.80;1.40;;;25.30;44.20;;;;;;5035912;28;20089;-77
2021/09/11 10:25:02;;;;;;;3.42;1.88;;;25.10;43.50;;;;;;5051774;28;20156;-84
2021/09/11 10:27:40;;;;;;;23.88;8.25;;;25.20;44.80;;;;;;5031570;28;20029;-91
2021/09/11 10:30:14;;;;;;;4.75;1.77;;;25.30;46.00;;;;;;5046939;28;20112;-87
2021/09/11 10:32:44;;;;;;;6.70;1.77;;;25.30;46.60;;;;;;5035094;28;20025;-84
2021/09/11 10:35:17;;;;;;;7.22;1.88;;;25.50;45.50;;;;;;5036386;28;20075;-85
2021/09/11 10:37:48;;;;;;;1.40;0.65;;;25.70;45.20;;;;;;5036349;28;20028;-85
2021/09/11 10:40:32;;;;;;;1.08;0.60;;;25.90;44.30;;;;;;5042247;28;20410;-84
2021/09/11 10:43:08;;;;;;;1.40;0.65;;;26.00;44.90;;;;;;5065662;28;20017;-78
2021/09/11 10:45:47;;;;;;;1.20;0.50;;;25.80;40.70;;;;;;5047928;28;20037;-83
2021/09/11 10:48:35;;;;;;;3.00;1.38;;;25.80;44.50;;;;;;5054016;28;20135;-80
2021/09/11 10:51:30;;;;;;;1.10;0.50;;;25.80;43.00;;;;;;5056097;28;20081;-76
2021/09/11 10:53:57;;;;;;;1.95;1.13;;;25.70;45.90;;;;;;5056072;28;20079;-80
2021/09/11 10:56:34;;;;;;;2.10;0.75;;;25.70;44.90;;;;;;5054200;28;20025;-83
2021/09/11 10:59:21;;;;;;;2.40;0.80;;;25.70;43.80;;;;;;5035854;28;20057;-78
2021/09/11 11:02:11;;;;;;;1.33;0.50;;;25.90;43.80;;;;;;5035628;28;20103;-77
2021/09/11 11:04:40;;;;;;;2.08;0.47;;;25.90;43.10;;;;;;5037528;28;20037;-76
2021/09/11 11:07:08;;;;;;;3.37;1.10;;;25.80;43.80;;;;;;5043437;28;20045;-76
2021/09/11 11:09:40;;;;;;;4.88;1.73;;;26.00;43.40;;;;;;5046950;28;20314;-77
2021/09/11 11:12:11;;;;;;;2.95;1.00;;;26.10;43.90;;;;;;5044111;28;20068;-77
2021/09/11 11:14:44;;;;;;;2.00;0.80;;;26.00;42.90;;;;;;5044851;28;20021;-73
2021/09/11 11:17:11;;;;;;;2.45;0.80;;;26.00;42.40;;;;;;5049063;28;20013;-75
2021/09/11 11:19:43;;;;;;;2.58;1.00;;;25.90;42.90;;;;;;5047447;28;20079;-75
2021/09/11 11:22:10;;;;;;;1.58;0.50;;;25.70;42.80;;;;;;5046979;28;20384;-75
2021/09/11 11:24:42;;;;;;;1.35;0.50;;;25.50;43.10;;;;;;5046581;28;20030;-75
2021/09/11 11:27:19;;;;;;;3.17;0.80;;;25.30;43.60;;;;;;5048428;28;20018;-76
2021/09/11 11:29:47;;;;;;;4.05;2.40;;;25.30;43.90;;;;;;5046008;28;20515;-76
2021/09/11 11:32:13;;;;;;;1.35;0.60;;;25.50;43.10;;;;;;5051984;28;20075;-77
2021/09/11 11:34:39;;;;;;;1.42;0.80;;;25.60;41.90;;;;;;5044020;28;20117;-79
2021/09/11 11:37:08;;;;;;;1.48;0.73;;;25.80;43.90;;;;;;5042783;28;20033;-78
2021/09/11 11:39:39;;;;;;;1.10;0.60;;;25.70;42.20;;;;;;5044694;28;20029;-77
2021/09/11 11:42:08;;;;;;;2.38;0.82;;;25.70;42.80;;;;;;5051694;28;20048;-89
2021/09/11 11:44:41;;;;;;;2.13;0.95;;;25.70;43.50;;;;;;5048547;28;20075;-78
2021/09/11 11:47:12;;;;;;;4.07;2.00;;;25.60;43.20;;;;;;5050572;28;20021;-79
2021/09/11 11:49:39;;;;;;;2.40;0.90;;;25.60;44.40;;;;;;5043491;28;20040;-82
2021/09/11 11:52:11;;;;;;;1.23;0.60;;;25.70;44.90;;;;;;5047176;28;20028;-84
2021/09/11 11:54:37;;;;;;;1.65;0.95;;;25.90;44.40;;;;;;5045122;28;20052;-82
2021/09/11 11:57:11;;;;;;;2.10;0.57;;;25.80;43.60;;;;;;5036830;28;20025;-80
2021/09/11 11:59:38;;;;;;;1.88;0.73;;;25.80;43.50;;;;;;5038834;28;20025;-83
2021/09/11 12:02:21;;;;;;;3.05;0.60;;;25.30;42.40;;;;;;5038760;28;20021;-80
2021/09/11 12:04:48;;;;;;;2.15;0.93;;;25.10;44.50;;;;;;5037556;28;20029;-77
2021/09/11 12:07:31;;;;;;;1.65;0.60;;;24.90;45.90;;;;;;5035483;28;20029;-78
2021/09/11 12:10:01;;;;;;;2.65;0.80;;;24.80;46.60;;;;;;5038410;28;20053;-79
2021/09/11 12:12:47;;;;;;;;;;;24.90;47.00;;;;;;5042171;28;20022;-79
2021/09/11 12:15:18;;;;;;;1.67;0.80;;;24.90;47.20;;;;;;5053181;28;20363;-78
2021/09/11 12:17:54;;;;;;;3.15;0.60;;;24.90;46.50;;;;;;5036393;28;20033;-78
2021/09/11 12:20:21;;;;;;;1.10;0.47;;;25.00;45.50;;;;;;5042577;28;20041;-75
2021/09/11 12:23:09;;;;;;;1.77;0.63;;;25.20;45.70;;;;;;5043807;28;20372;-75
2021/09/11 12:25:51;;;;;;;0.95;0.50;;;24.60;44.90;;;;;;5043976;28;20477;-75
2021/09/11 12:28:39;;;;;;;3.00;0.70;;;24.80;46.50;;;;;;5051352;28;20029;-77
2021/09/11 12:31:20;;;;;;;1.48;0.45;;;24.50;44.50;;;;;;5038074;28;20029;-77
2021/09/11 12:33:49;;;;;;;2.50;0.68;;;24.40;45.30;;;;;;5054416;28;20031;-76
2021/09/11 12:36:22;;;;;;;1.25;0.80;;;24.50;45.30;;;;;;5043279;28;20025;-76
2021/09/11 12:38:49;;;;;;;1.30;0.60;;;24.60;45.60;;;;;;5037817;28;20068;-76
2021/09/11 12:41:15;;;;;;;1.30;0.50;;;24.90;46.70;;;;;;5060409;28;20042;-75
2021/09/11 12:43:40;;;;;;;1.83;0.50;;;25.10;45.60;;;;;;5077572;28;20107;-76
2021/09/11 12:46:06;;;;;;;0.93;0.50;;;25.10;43.60;;;;;;5044271;28;20025;-75
2021/09/11 12:48:32;;;;;;;1.70;0.63;;;25.20;44.10;;;;;;5055315;28;20049;-76
2021/09/11 12:50:57;;;;;;;1.45;0.50;;;25.10;43.90;;;;;;5053318;28;20106;-76
2021/09/11 12:53:23;;;;;;;2.72;0.63;;;25.20;44.70;;;;;;5046022;28;20511;-75
2021/09/11 12:55:49;;;;;;;1.40;0.68;;;25.20;44.50;;;;;;5047638;28;20056;-80
2021/09/11 12:58:14;;;;;;;1.42;0.40;;;25.10;45.30;;;;;;5050042;28;20064;-76
2021/09/11 13:00:40;;;;;;;0.95;0.30;;;25.20;45.00;;;;;;5055936;28;20534;-78
2021/09/11 13:03:05;;;;;;;1.13;0.50;;;25.10;42.80;;;;;;5056512;28;20068;-76
2021/09/11 13:05:31;;;;;;;1.52;0.50;;;25.20;45.70;;;;;;5037804;28;20428;-75
2021/09/11 13:07:57;;;;;;;1.20;0.60;;;25.10;42.90;;;;;;5047370;28;20063;-76
2021/09/11 13:10:22;;;;;;;1.92;0.80;;;25.10;46.10;;;;;;5057136;28;20052;-77
2021/09/11 13:12:48;;;;;;;1.40;0.50;;;25.10;44.20;;;;;;5042674;28;20029;-84
2021/09/11 13:15:14;;;;;;;1.55;0.50;;;25.10;44.40;;;;;;5034906;28;20021;-81
2021/09/11 13:17:40;;;;;;;1.55;0.60;;;25.30;45.00;;;;;;5037236;28;20029;-80
2021/09/11 13:20:06;;;;;;;1.83;0.60;;;25.40;44.90;;;;;;5019290;28;20047;-80
2021/09/11 13:22:32;;;;;;;0.93;0.43;;;25.60;44.40;;;;;;5047774;28;20033;-80
2021/09/11 13:24:57;;;;;;;1.08;0.43;;;25.40;43.40;;;;;;5045393;28;20029;-80
2021/09/11 13:27:23;;;;;;;3.15;0.60;;;25.70;43.90;;;;;;5037231;28;20073;-78
2021/09/11 13:29:49;;;;;;;1.67;0.45;;;25.80;42.30;;;;;;5037214;28;20033;-76
2021/09/11 13:32:14;;;;;;;1.45;0.40;;;25.70;43.20;;;;;;5045477;28;20048;-79
2021/09/11 13:34:40;;;;;;;1.65;0.63;;;25.80;44.00;;;;;;5051250;28;20044;-78
2021/09/11 13:37:05;;;;;;;1.20;0.50;;;26.20;43.70;;;;;;5042092;28;20032;-81
2021/09/11 13:39:31;;;;;;;1.02;0.30;;;26.40;42.30;;;;;;5056938;28;20432;-78
2021/09/11 13:41:57;;;;;;;0.93;0.38;;;26.60;42.40;;;;;;5064027;28;20095;-79
2021/09/11 13:44:23;;;;;;;0.95;0.30;;;26.60;42.30;;;;;;5056805;28;20103;-78
2021/09/11 13:46:49;;;;;;;1.05;0.32;;;26.80;41.80;;;;;;5056749;28;20033;-76
2021/09/11 13:49:15;;;;;;;1.80;0.40;;;26.60;41.60;;;;;;5046402;28;20512;-77
2021/09/11 13:51:41;;;;;;;1.10;0.30;;;26.60;41.30;;;;;;5037201;28;20030;-77
2021/09/11 13:54:07;;;;;;;1.25;0.50;;;26.80;42.60;;;;;;5036760;28;20029;-78
2021/09/11 13:56:34;;;;;;;0.93;0.35;;;26.60;41.40;;;;;;5038205;28;20032;-78
2021/09/11 13:59:00;;;;;;;0.75;0.30;;;26.20;42.30;;;;;;5049571;28;20078;-80
2021/09/11 14:01:26;;;;;;;0.60;0.40;;;26.10;43.60;;;;;;5055301;28;20033;-79
2021/09/11 14:03:51;;;;;;;1.45;0.40;;;26.00;43.30;;;;;;5049125;28;20021;-80
2021/09/11 14:06:18;;;;;;;2.08;0.55;;;25.80;43.70;;;;;;5044945;28;20118;-80
2021/09/11 14:08:44;;;;;;;0.80;0.40;;;25.80;44.60;;;;;;5039547;28;20026;-79
2021/09/11 14:11:10;;;;;;;1.10;0.40;;;25.70;44.80;;;;;;5050529;28;20039;-80
2021/09/11 14:13:36;;;;;;;0.80;0.50;;;25.50;45.60;;;;;;5045306;28;20025;-80
2021/09/11 14:16:03;;;;;;;0.77;0.43;;;25.30;45.10;;;;;;5047067;28;20456;-79
2021/09/11 14:18:29;;;;;;;1.35;0.30;;;25.10;45.20;;;;;;5045003;28;20025;-80
2021/09/11 14:20:56;;;;;;;1.65;0.38;;;25.30;45.50;;;;;;5044949;28;20428;-79
2021/09/11 14:23:22;;;;;;;0.85;0.38;;;25.30;45.70;;;;;;5046771;28;20037;-81
2021/09/11 14:25:52;;;;;;;1.50;0.45;;;25.20;44.90;;;;;;5044934;28;20030;-80
2021/09/11 14:28:20;;;;;;;2.00;0.32;;;25.30;44.40;;;;;;5048250;28;20449;-81
2021/09/11 14:30:46;;;;;;;1.08;0.40;;;25.40;45.40;;;;;;5044744;28;20051;-81
2021/09/11 14:33:11;;;;;;;1.15;0.22;;;25.40;44.50;;;;;;5044791;28;20184;-79
2021/09/11 14:35:38;;;;;;;1.58;0.40;;;25.40;44.00;;;;;;5046754;28;20029;-81
2021/09/11 14:38:03;;;;;;;1.15;0.47;;;25.30;44.50;;;;;;5055170;28;20032;-81
2021/09/11 14:40:29;;;;;;;1.83;0.50;;;25.10;45.20;;;;;;5055237;28;20558;-80
2021/09/11 14:42:55;;;;;;;0.70;0.40;;;25.00;45.30;;;;;;5056131;28;20035;-80
2021/09/11 14:45:21;;;;;;;1.10;0.43;;;24.90;44.70;;;;;;5049759;28;20036;-78
2021/09/11 14:47:47;;;;;;;1.00;0.40;;;24.80;45.30;;;;;;5040893;28;20037;-82
2021/09/11 14:50:12;;;;;;;1.23;0.50;;;24.80;45.10;;;;;;5043862;28;20025;-83
2021/09/11 14:52:38;;;;;;;1.40;0.50;;;24.70;45.60;;;;;;5043407;28;20376;-83
2021/09/11 14:55:05;;;;;;;1.42;0.40;;;24.50;45.70;;;;;;5045977;28;20383;-83
2021/09/11 14:57:30;;;;;;;1.00;0.35;;;24.30;46.40;;;;;;5044202;28;20534;-82
2021/09/11 14:59:56;;;;;;;0.85;0.40;;;24.20;46.60;;;;;;5044404;28;20033;-82
2021/09/11 15:02:26;;;;;;;1.00;0.45;;;24.30;46.70;;;;;;5044592;28;20037;-82
2021/09/11 15:04:57;;;;;;;1.65;0.60;;;24.30;46.90;;;;;;5045775;28;20028;-83
2021/09/11 15:07:24;;;;;;;0.95;0.38;;;24.30;47.50;;;;;;5044447;28;20034;-82
2021/09/11 15:09:49;;;;;;;1.00;0.32;;;24.40;46.20;;;;;;5046070;28;20021;-83
2021/09/11 15:12:15;;;;;;;1.48;0.40;;;24.50;45.60;;;;;;5044052;28;20503;-83
2021/09/11 15:14:41;;;;;;;3.45;0.50;;;24.50;45.60;;;;;;5044014;28;20030;-83
2021/09/11 15:17:06;;;;;;;0.90;0.45;;;24.40;46.30;;;;;;5035985;28;20018;-83
2021/09/11 15:19:33;;;;;;;0.75;0.32;;;24.40;45.70;;;;;;5035722;28;20582;-83
2021/09/11 15:21:59;;;;;;;0.60;0.30;;;24.30;46.10;;;;;;5035730;28;20026;-81
2021/09/11 15:24:24;;;;;;;2.08;0.50;;;24.30;46.70;;;;;;5034512;28;20087;-83
2021/09/11 15:26:50;;;;;;;1.65;0.50;;;24.40;46.50;;;;;;5043555;28;20029;-85
2021/09/11 15:29:16;;;;;;;0.80;0.50;;;24.40;45.90;;;;;;5043778;28;20037;-84
2021/09/11 15:31:41;;;;;;;1.77;0.50;;;24.50;46.00;;;;;;5044623;28;20048;-83
2021/09/11 15:34:07;;;;;;;0.60;0.40;;;24.70;45.70;;;;;;5049511;28;20100;-83
2021/09/11 15:36:33;;;;;;;0.60;0.32;;;24.70;46.30;;;;;;5044429;28;20118;-83
2021/09/11 15:38:59;;;;;;;0.55;0.30;;;24.70;45.10;;;;;;5035547;28;20025;-82
2021/09/11 15:41:24;;;;;;;0.68;0.30;;;24.80;46.00;;;;;;5052654;28;20048;-84
2021/09/11 15:43:50;;;;;;;0.93;0.40;;;24.80;46.10;;;;;;5048549;28;20080;-82
2021/09/11 15:46:16;;;;;;;0.80;0.30;;;24.90;46.60;;;;;;5040193;28;20033;-83
2021/09/11 15:48:41;;;;;;;0.80;0.43;;;24.90;45.50;;;;;;5042849;28;20053;-83
2021/09/11 15:51:08;;;;;;;2.28;0.40;;;25.00;45.40;;;;;;5045750;28;20430;-83
2021/09/11 15:53:34;;;;;;;0.70;0.40;;;25.20;46.10;;;;;;5042785;28;20054;-84
2021/09/11 15:56:03;;;;;;;0.98;0.47;;;25.30;45.10;;;;;;5053321;28;20036;-87
2021/09/11 15:58:30;;;;;;;2.17;0.52;;;25.20;45.70;;;;;;5054093;28;20029;-85
2021/09/11 16:00:56;;;;;;;1.55;0.40;;;25.30;45.20;;;;;;5047548;28;20083;-84
2021/09/11 16:03:21;;;;;;;0.80;0.40;;;25.50;44.90;;;;;;5052577;28;20041;-82
2021/09/11 16:05:47;;;;;;;1.45;0.50;;;25.40;44.20;;;;;;5043131;28;20029;-84
2021/09/11 16:08:13;;;;;;;1.42;0.45;;;25.10;44.30;;;;;;5042018;28;20037;-83
2021/09/11 16:10:39;;;;;;;1.33;0.30;;;24.90;45.10;;;;;;5039222;28;20442;-85
2021/09/11 16:13:04;;;;;;;1.08;0.40;;;24.80;46.70;;;;;;5040895;28;20014;-84
2021/09/11 16:15:30;;;;;;;1.52;0.60;;;24.60;45.80;;;;;;5046086;28;20028;-84
2021/09/11 16:17:56;;;;;;;0.88;0.30;;;24.50;46.30;;;;;;5045435;28;20028;-84
2021/09/11 16:20:22;;;;;;;1.17;0.40;;;24.50;46.40;;;;;;5045784;28;20484;-84
2021/09/11 16:22:47;;;;;;;1.35;0.40;;;24.50;48.30;;;;;;5047921;28;20143;-84
2021/09/11 16:25:15;;;;;;;0.70;0.30;;;24.40;47.50;;;;;;5048544;28;20033;-84
2021/09/11 16:27:42;;;;;;;0.75;0.40;;;24.50;47.60;;;;;;5046964;28;20100;-83
2021/09/11 16:30:08;;;;;;;1.85;0.50;;;24.50;47.90;;;;;;5048347;28;20080;-84
2021/09/11 16:32:34;;;;;;;1.85;0.40;;;24.50;47.70;;;;;;5048099;28;20022;-83
2021/09/11 16:35:00;;;;;;;1.67;0.40;;;24.50;47.30;;;;;;5044750;28;20025;-84
2021/09/11 16:37:26;;;;;;;1.73;0.40;;;24.50;46.90;;;;;;5048478;28;20031;-84
2021/09/11 16:39:52;;;;;;;1.10;0.40;;;24.40;47.10;;;;;;5048281;28;20072;-84
2021/09/11 16:42:18;;;;;;;1.40;0.47;;;24.30;47.80;;;;;;5048640;28;20065;-84
2021/09/11 16:44:45;;;;;;;0.88;0.43;;;24.30;48.10;;;;;;5054915;28;20017;-83
2021/09/11 16:47:11;;;;;;;0.70;0.38;;;24.30;48.90;;;;;;5056934;28;20448;-84
2021/09/11 16:49:37;;;;;;;1.80;0.40;;;24.10;48.40;;;;;;5055215;28;20057;-84
2021/09/11 16:52:04;;;;;;;1.77;0.47;;;24.10;49.20;;;;;;5058293;28;20029;-84
2021/09/11 16:54:30;;;;;;;1.83;0.70;;;24.00;48.60;;;;;;5049323;28;20025;-84
2021/09/11 16:56:55;;;;;;;0.60;0.40;;;24.10;48.60;;;;;;5040840;28;20056;-83
2021/09/11 16:59:21;;;;;;;0.93;0.35;;;24.00;50.00;;;;;;5046874;28;20029;-84
2021/09/11 17:01:47;;;;;;;0.85;0.32;;;24.00;49.40;;;;;;5049079;28;20033;-84
2021/09/11 17:04:13;;;;;;;0.88;0.40;;;23.90;49.50;;;;;;5047360;28;20021;-84
2021/09/11 17:06:39;;;;;;;1.52;0.43;;;24.00;50.40;;;;;;5046051;28;20072;-84
2021/09/11 17:09:05;;;;;;;1.90;0.50;;;23.90;50.70;;;;;;5047754;28;20041;-84
2021/09/11 17:11:31;;;;;;;0.52;0.30;;;23.80;51.10;;;;;;5046634;28;20479;-84
2021/09/11 17:13:56;;;;;;;1.05;0.40;;;23.80;50.40;;;;;;5048992;28;20025;-84
2021/09/11 17:16:22;;;;;;;1.02;0.30;;;23.70;51.00;;;;;;5046929;28;20029;-84
2021/09/11 17:18:48;;;;;;;0.75;0.50;;;23.70;50.90;;;;;;5047899;28;20392;-84
2021/09/11 17:21:14;;;;;;;0.77;0.40;;;23.60;50.70;;;;;;5042766;28;20112;-87
2021/09/11 17:23:42;;;;;;;0.75;0.35;;;23.50;51.30;;;;;;5040818;28;20017;-84
2021/09/11 17:26:08;;;;;;;1.90;0.60;;;23.40;51.20;;;;;;5044400;28;20025;-84
2021/09/11 17:28:34;;;;;;;0.77;0.45;;;23.40;51.40;;;;;;5037713;28;20545;-84
2021/09/11 17:30:59;;;;;;;1.20;0.50;;;23.30;52.10;;;;;;5037707;28;20038;-85
2021/09/11 17:33:25;;;;;;;1.40;0.63;;;23.30;52.60;;;;;;5037485;28;20025;-85
2021/09/11 17:35:51;;;;;;;2.05;0.82;;;23.20;53.10;;;;;;5041983;28;20018;-85
2021/09/11 17:38:17;;;;;;;2.00;0.85;;;23.10;53.80;;;;;;5050268;28;20060;-85
2021/09/11 17:40:42;;;;;;;2.53;0.82;;;23.10;54.40;;;;;;5053259;28;20032;-84
2021/09/11 17:43:08;;;;;;;1.45;0.82;;;23.00;55.10;;;;;;5062469;28;20029;-85
2021/09/11 17:45:35;;;;;;;1.90;0.82;;;23.10;55.00;;;;;;5051479;28;20032;-83
2021/09/11 17:48:00;;;;;;;1.95;0.95;;;23.10;55.70;;;;;;5040606;28;20041;-85
2021/09/11 17:50:26;;;;;;;1.83;0.93;;;23.00;55.30;;;;;;5044924;28;20585;-81
2021/09/11 17:52:52;;;;;;;1.77;0.60;;;23.10;55.50;;;;;;5041573;28;20017;-82
2021/09/11 17:55:18;;;;;;;3.45;0.95;;;23.20;55.70;;;;;;5053452;28;20040;-79
2021/09/11 17:57:44;;;;;;;2.88;0.70;;;23.10;56.10;;;;;;5057371;28;20025;-89
2021/09/11 18:00:11;;;;;;;1.67;0.60;;;23.10;56.20;;;;;;5053090;28;20498;-80
2021/09/11 18:02:38;;;;;;;1.60;0.73;;;23.00;56.40;;;;;;5052135;28;20442;-81
2021/09/11 18:05:05;;;;;;;3.95;0.85;;;23.00;56.40;;;;;;5056686;28;20021;-79
2021/09/11 18:07:30;;;;;;;1.83;0.60;;;22.90;56.60;;;;;;5056496;28;20051;-89
2021/09/11 18:09:56;;;;;;;1.02;0.65;;;22.90;56.60;;;;;;5069417;28;20082;-80
2021/09/11 18:12:22;;;;;;;1.52;0.70;;;22.80;56.90;;;;;;5062906;28;20029;-81
2021/09/11 18:14:48;;;;;;;1.42;0.95;;;22.80;57.00;;;;;;5042958;28;20029;-81
2021/09/11 18:17:14;;;;;;;1.05;0.60;;;22.70;57.70;;;;;;5047915;28;20039;-79
2021/09/11 18:19:40;;;;;;;2.03;0.70;;;22.70;57.90;;;;;;5043296;28;20108;-79
2021/09/11 18:22:06;;;;;;;2.35;0.90;;;22.60;57.90;;;;;;5042237;28;20039;-78
2021/09/11 18:24:32;;;;;;;1.13;0.70;;;22.50;58.10;;;;;;5040709;28;20038;-79
2021/09/11 18:26:58;;;;;;;1.50;0.70;;;22.40;58.30;;;;;;5044081;28;20561;-81
2021/09/11 18:29:44;;;;;;;2.75;1.05;;;22.30;58.40;;;;;;5044592;28;20495;-80
2021/09/11 18:32:09;;;;;;;1.10;0.82;;;22.30;58.70;;;;;;5046595;28;20431;-79
2021/09/11 18:34:35;;;;;;;2.10;0.88;;;22.30;58.70;;;;;;5040263;28;20024;-77
2021/09/11 18:37:01;;;;;;;2.47;0.70;;;22.20;58.80;;;;;;5043134;28;20108;-76
2021/09/11 18:39:26;;;;;;;1.42;0.68;;;22.20;58.80;;;;;;5050678;28;20040;-78
2021/09/11 18:41:52;;;;;;;2.10;0.60;;;22.20;58.60;;;;;;5048896;28;20506;-76
2021/09/11 18:44:18;;;;;;;1.95;0.60;;;22.20;58.70;;;;;;5050166;28;20391;-76
2021/09/11 18:46:44;;;;;;;1.00;0.60;;;22.20;58.60;;;;;;5045878;28;20032;-75
2021/09/11 18:49:09;;;;;;;1.95;0.80;;;22.10;58.50;;;;;;5043879;28;20045;-76
2021/09/11 18:51:35;;;;;;;1.65;0.80;;;22.10;58.40;;;;;;5044060;28;20473;-77
2021/09/11 18:54:01;;;;;;;1.70;0.82;;;22.00;58.70;;;;;;5048494;28;20023;-76
2021/09/11 18:56:27;;;;;;;1.02;0.60;;;21.90;58.70;;;;;;5048184;28;20040;-74
2021/09/11 18:58:52;;;;;;;1.30;0.60;;;21.90;58.90;;;;;;5050004;28;20029;-76
2021/09/11 19:01:18;;;;;;;3.42;0.90;;;21.90;58.90;;;;;;5042010;28;20111;-75
2021/09/11 19:03:49;;;;;;;1.20;0.85;;;21.80;59.00;;;;;;5044301;28;20047;-78
2021/09/11 19:06:16;;;;;;;1.45;0.80;;;21.80;59.20;;;;;;5043766;28;20436;-77
2021/09/11 19:08:41;;;;;;;2.50;1.13;;;21.80;59.40;;;;;;5048943;28;20033;-75
2021/09/11 19:11:07;;;;;;;2.70;0.68;;;21.70;59.30;;;;;;5049587;28;20028;-79
2021/09/11 19:13:33;;;;;;;2.65;0.80;;;21.60;59.70;;;;;;5041833;28;20111;-79
2021/09/11 19:15:59;;;;;;;1.67;0.88;;;21.60;59.60;;;;;;5044347;28;20735;-81
2021/09/11 19:18:25;;;;;;;1.25;0.90;;;21.60;59.50;;;;;;5047602;28;20040;-79
2021/09/11 19:20:58;;;;;;;1.50;0.70;;;21.60;59.60;;;;;;5040393;28;20041;-76
2021/09/11 19:23:24;;;;;;;2.10;0.80;;;21.60;59.70;;;;;;5046076;28;20470;-83
2021/09/11 19:25:50;;;;;;;2.95;1.00;;;21.60;59.40;;;;;;5046160;28;20063;-79
2021/09/11 19:28:17;;;;;;;1.35;0.77;;;21.50;59.40;;;;;;5045296;28;20048;-77
2021/09/11 19:30:44;;;;;;;1.77;0.70;;;21.60;59.20;;;;;;5039315;28;20476;-79
2021/09/11 19:33:10;;;;;;;1.98;0.50;;;21.50;59.30;;;;;;5043501;28;20041;-79
2021/09/11 19:35:37;;;;;;;1.15;0.60;;;21.50;59.50;;;;;;5041780;28;20553;-79
2021/09/11 19:38:06;;;;;;;1.00;0.60;;;21.50;59.30;;;;;;5040488;28;20033;-80
2021/09/11 19:40:32;;;;;;;1.83;0.55;;;21.40;59.50;;;;;;5043951;28;20025;-79
2021/09/11 19:42:58;;;;;;;1.05;0.65;;;21.30;59.50;;;;;;5041744;28;20040;-79
2021/09/11 19:45:24;;;;;;;1.13;0.60;;;21.30;59.50;;;;;;5049031;28;20391;-79
2021/09/11 19:47:51;;;;;;;1.20;0.70;;;21.30;59.50;;;;;;5052287;28;20823;-81
2021/09/11 19:50:17;;;;;;;2.75;0.80;;;21.30;59.60;;;;;;5041298;28;20034;-80
2021/09/11 19:52:43;;;;;;;2.22;0.82;;;21.30;59.50;;;;;;5047096;28;20019;-81
2021/09/11 19:55:10;;;;;;;1.20;0.80;;;21.30;59.40;;;;;;5041388;28;20028;-77
2021/09/11 19:57:37;;;;;;;1.00;0.65;;;21.30;59.50;;;;;;5050730;28;20060;-80
2021/09/11 20:00:09;;;;;;;1.55;0.63;;;21.20;59.50;;;;;;5042680;28;20029;-79
2021/09/11 20:02:35;;;;;;;2.75;0.75;;;21.20;59.50;;;;;;5044727;28;20033;-78
2021/09/11 20:05:00;;;;;;;1.38;0.60;;;21.10;59.50;;;;;;5044403;28;20487;-80
2021/09/11 20:07:26;;;;;;;1.20;0.68;;;21.10;59.70;;;;;;5041351;28;20028;-80
2021/09/11 20:09:51;;;;;;;1.42;0.57;;;21.10;59.70;;;;;;5040618;28;20038;-81
2021/09/11 20:12:17;;;;;;;1.27;0.57;;;21.00;59.90;;;;;;5042697;28;20044;-79
2021/09/11 20:14:43;;;;;;;1.30;0.60;;;21.00;60.00;;;;;;5039558;28;20037;-79
2021/09/11 20:17:09;;;;;;;1.10;0.75;;;21.00;59.90;;;;;;5041936;28;20025;-79
2021/09/11 20:19:35;;;;;;;1.20;0.63;;;20.90;60.00;;;;;;5038024;28;20104;-80
2021/09/11 20:22:02;;;;;;;1.17;0.63;;;20.90;60.10;;;;;;5035792;28;20067;-79
2021/09/11 20:24:28;;;;;;;0.63;0.40;;;20.90;60.00;;;;;;5033502;28;20025;-79
2021/09/11 20:26:54;;;;;;;1.85;0.57;;;20.90;60.00;;;;;;5039680;28;20027;-79
2021/09/11 20:29:21;;;;;;;1.00;0.50;;;20.90;60.20;;;;;;5037356;28;20480;-79
2021/09/11 20:31:46;;;;;;;1.38;0.88;;;20.90;60.30;;;;;;5039577;28;20025;-79
2021/09/11 20:34:12;;;;;;;1.70;0.68;;;20.90;60.20;;;;;;5039663;28;20108;-80
2021/09/11 20:36:38;;;;;;;0.80;0.47;;;20.80;60.40;;;;;;5047176;28;20024;-79
2021/09/11 20:39:04;;;;;;;3.47;0.88;;;20.80;60.60;;;;;;5042801;28;20075;-79
2021/09/11 20:41:30;;;;;;;1.25;0.70;;;20.80;60.50;;;;;;5043660;28;20029;-80